Terminal Aerodrome Forecast
Issued by NWS

Home | Current Version | Previous Version | Text Only | Print | Product List | Glossary On
Versions: 1 2 3 4 5 6 7 8 9 10 11 12 13 14 15 16 17 18 19 20 21 22 23 24 25 26 27 28
000
FTUS43 KSGF 211525 AAB
TAFJLN
TAF AMD
KJLN 211525Z 2115/2212 35006KT 6SM BR BKN005
     FM211700 35007KT P6SM BKN010
     FM211800 35010KT P6SM SCT100
     FM220100 VRB03KT P6SM SKC=

USA.gov is the U.S. government's official web portal to all federal, state and local government web resources and services.